sensor_id;sensor_type;location;lat;lon;timestamp;temperature;humidity
6841;DHT22;3458;53.678;14.080;2023-08-06T00:01:38;18.00;99.90
6841;DHT22;3458;53.678;14.080;2023-08-06T00:04:04;18.00;99.90
6841;DHT22;3458;53.678;14.080;2023-08-06T00:06:29;18.00;99.90
6841;DHT22;3458;53.678;14.080;2023-08-06T00:08:55;18.00;99.90
6841;DHT22;3458;53.678;14.080;2023-08-06T00:11:20;18.00;99.90
6841;DHT22;3458;53.678;14.080;2023-08-06T00:13:46;18.00;99.90
6841;DHT22;3458;53.678;14.080;2023-08-06T00:16:12;18.00;99.90
6841;DHT22;3458;53.678;14.080;2023-08-06T00:18:38;18.00;99.90
6841;DHT22;3458;53.678;14.080;2023-08-06T00:21:04;17.90;99.90
6841;DHT22;3458;53.678;14.080;2023-08-06T00:23:29;17.90;99.90
6841;DHT22;3458;53.678;14.080;2023-08-06T00:25:55;17.90;99.90
6841;DHT22;3458;53.678;14.080;2023-08-06T00:28:20;17.90;99.90
6841;DHT22;3458;53.678;14.080;2023-08-06T00:30:46;17.80;99.90
6841;DHT22;3458;53.678;14.080;2023-08-06T00:33:11;17.90;99.90
6841;DHT22;3458;53.678;14.080;2023-08-06T00:35:37;17.80;99.90
6841;DHT22;3458;53.678;14.080;2023-08-06T00:38:02;17.80;99.90
6841;DHT22;3458;53.678;14.080;2023-08-06T00:40:28;17.80;99.90
6841;DHT22;3458;53.678;14.080;2023-08-06T00:42:55;17.80;99.90
6841;DHT22;3458;53.678;14.080;2023-08-06T00:45:21;17.80;99.90
6841;DHT22;3458;53.678;14.080;2023-08-06T00:47:47;17.80;99.90
6841;DHT22;3458;53.678;14.080;2023-08-06T00:50:13;17.70;99.90
6841;DHT22;3458;53.678;14.080;2023-08-06T00:52:38;17.70;99.90
6841;DHT22;3458;53.678;14.080;2023-08-06T00:55:05;17.80;99.90
6841;DHT22;3458;53.678;14.080;2023-08-06T00:57:31;17.80;99.90
6841;DHT22;3458;53.678;14.080;2023-08-06T00:59:57;17.70;99.90
6841;DHT22;3458;53.678;14.080;2023-08-06T01:02:22;17.70;99.90
6841;DHT22;3458;53.678;14.080;2023-08-06T01:04:48;17.70;99.90
6841;DHT22;3458;53.678;14.080;2023-08-06T01:10:31;17.70;99.90
6841;DHT22;3458;53.678;14.080;2023-08-06T01:13:18;17.70;99.90
6841;DHT22;3458;53.678;14.080;2023-08-06T01:15:55;17.70;99.90
6841;DHT22;3458;53.678;14.080;2023-08-06T01:18:23;17.70;99.90
6841;DHT22;3458;53.678;14.080;2023-08-06T01:20:49;17.70;99.90
6841;DHT22;3458;53.678;14.080;2023-08-06T01:23:18;17.70;99.90
6841;DHT22;3458;53.678;14.080;2023-08-06T01:26:13;17.70;99.90
6841;DHT22;3458;53.678;14.080;2023-08-06T01:31:31;17.70;99.90
6841;DHT22;3458;53.678;14.080;2023-08-06T01:33:58;17.70;99.90
6841;DHT22;3458;53.678;14.080;2023-08-06T01:36:25;17.80;99.90
6841;DHT22;3458;53.678;14.080;2023-08-06T01:38:52;17.80;99.90
6841;DHT22;3458;53.678;14.080;2023-08-06T01:41:18;17.80;99.90
6841;DHT22;3458;53.678;14.080;2023-08-06T01:43:44;17.80;99.90
6841;DHT22;3458;53.678;14.080;2023-08-06T01:46:09;17.80;99.90
6841;DHT22;3458;53.678;14.080;2023-08-06T01:48:35;17.80;99.90
6841;DHT22;3458;53.678;14.080;2023-08-06T01:51:00;17.80;99.90
6841;DHT22;3458;53.678;14.080;2023-08-06T01:53:26;17.80;99.90
6841;DHT22;3458;53.678;14.080;2023-08-06T01:55:51;17.80;99.90
6841;DHT22;3458;53.678;14.080;2023-08-06T01:58:17;17.70;99.90
6841;DHT22;3458;53.678;14.080;2023-08-06T02:00:42;17.70;99.90
6841;DHT22;3458;53.678;14.080;2023-08-06T02:03:08;17.70;99.90
6841;DHT22;3458;53.678;14.080;2023-08-06T02:05:33;17.70;99.90
6841;DHT22;3458;53.678;14.080;2023-08-06T02:07:59;17.70;99.90
6841;DHT22;3458;53.678;14.080;2023-08-06T02:10:24;17.70;99.90
6841;DHT22;3458;53.678;14.080;2023-08-06T02:12:50;17.70;99.90
6841;DHT22;3458;53.678;14.080;2023-08-06T02:15:15;17.70;99.90
6841;DHT22;3458;53.678;14.080;2023-08-06T02:17:41;17.70;99.90
6841;DHT22;3458;53.678;14.080;2023-08-06T02:20:06;17.70;99.90
6841;DHT22;3458;53.678;14.080;2023-08-06T02:22:32;17.70;99.90
6841;DHT22;3458;53.678;14.080;2023-08-06T02:24:58;17.70;99.90
6841;DHT22;3458;53.678;14.080;2023-08-06T02:27:24;17.70;99.90
6841;DHT22;3458;53.678;14.080;2023-08-06T02:29:49;17.70;99.90
6841;DHT22;3458;53.678;14.080;2023-08-06T02:32:15;17.70;99.90
6841;DHT22;3458;53.678;14.080;2023-08-06T02:34:40;17.70;99.90
6841;DHT22;3458;53.678;14.080;2023-08-06T02:37:06;17.70;99.90
6841;DHT22;3458;53.678;14.080;2023-08-06T02:39:31;17.70;99.90
6841;DHT22;3458;53.678;14.080;2023-08-06T02:41:58;17.70;99.90
6841;DHT22;3458;53.678;14.080;2023-08-06T02:44:27;17.70;99.90
6841;DHT22;3458;53.678;14.080;2023-08-06T02:46:52;17.70;99.90
6841;DHT22;3458;53.678;14.080;2023-08-06T02:49:18;17.70;99.90
6841;DHT22;3458;53.678;14.080;2023-08-06T02:51:45;17.70;99.90
6841;DHT22;3458;53.678;14.080;2023-08-06T02:54:10;17.70;99.90
6841;DHT22;3458;53.678;14.080;2023-08-06T02:56:36;17.70;99.90
6841;DHT22;3458;53.678;14.080;2023-08-06T02:59:01;17.60;99.90
6841;DHT22;3458;53.678;14.080;2023-08-06T03:01:27;17.60;99.90
6841;DHT22;3458;53.678;14.080;2023-08-06T03:03:53;17.60;99.90
6841;DHT22;3458;53.678;14.080;2023-08-06T03:06:19;17.60;99.90
6841;DHT22;3458;53.678;14.080;2023-08-06T03:08:44;17.60;99.90
6841;DHT22;3458;53.678;14.080;2023-08-06T03:11:10;17.60;99.90
6841;DHT22;3458;53.678;14.080;2023-08-06T03:13:35;17.60;99.90
6841;DHT22;3458;53.678;14.080;2023-08-06T03:16:01;17.60;99.90
6841;DHT22;3458;53.678;14.080;2023-08-06T03:18:26;17.60;99.90
6841;DHT22;3458;53.678;14.080;2023-08-06T03:20:52;17.60;99.90
6841;DHT22;3458;53.678;14.080;2023-08-06T03:23:18;17.50;99.90
6841;DHT22;3458;53.678;14.080;2023-08-06T03:25:44;17.60;99.90
6841;DHT22;3458;53.678;14.080;2023-08-06T03:28:10;17.60;99.90
6841;DHT22;3458;53.678;14.080;2023-08-06T03:30:35;17.50;99.90
6841;DHT22;3458;53.678;14.080;2023-08-06T03:33:01;17.50;99.90
6841;DHT22;3458;53.678;14.080;2023-08-06T03:35:26;17.50;99.90
6841;DHT22;3458;53.678;14.080;2023-08-06T03:37:52;17.50;99.90
6841;DHT22;3458;53.678;14.080;2023-08-06T03:40:17;17.50;99.90
6841;DHT22;3458;53.678;14.080;2023-08-06T03:42:43;17.60;99.90
6841;DHT22;3458;53.678;14.080;2023-08-06T03:45:09;17.50;99.90
6841;DHT22;3458;53.678;14.080;2023-08-06T03:47:34;17.60;99.90
6841;DHT22;3458;53.678;14.080;2023-08-06T03:50:00;17.50;99.90
6841;DHT22;3458;53.678;14.080;2023-08-06T03:52:25;17.50;99.90
6841;DHT22;3458;53.678;14.080;2023-08-06T03:54:51;17.50;99.90
6841;DHT22;3458;53.678;14.080;2023-08-06T03:57:17;17.50;99.90
6841;DHT22;3458;53.678;14.080;2023-08-06T03:59:43;17.50;99.90
6841;DHT22;3458;53.678;14.080;2023-08-06T04:02:09;17.50;99.90
6841;DHT22;3458;53.678;14.080;2023-08-06T04:04:34;17.50;99.90
6841;DHT22;3458;53.678;14.080;2023-08-06T04:07:00;17.50;99.90
6841;DHT22;3458;53.678;14.080;2023-08-06T04:09:27;17.50;99.90
6841;DHT22;3458;53.678;14.080;2023-08-06T04:11:53;17.40;99.90
6841;DHT22;3458;53.678;14.080;2023-08-06T04:14:18;17.40;99.90
6841;DHT22;3458;53.678;14.080;2023-08-06T04:16:44;17.50;99.90
6841;DHT22;3458;53.678;14.080;2023-08-06T04:19:10;17.50;99.90
6841;DHT22;3458;53.678;14.080;2023-08-06T04:21:35;17.40;99.90
6841;DHT22;3458;53.678;14.080;2023-08-06T04:24:00;17.40;99.90
6841;DHT22;3458;53.678;14.080;2023-08-06T04:26:26;17.40;99.90
6841;DHT22;3458;53.678;14.080;2023-08-06T04:28:52;17.40;99.90
6841;DHT22;3458;53.678;14.080;2023-08-06T04:31:17;17.40;99.90
6841;DHT22;3458;53.678;14.080;2023-08-06T04:33:43;17.40;99.90
6841;DHT22;3458;53.678;14.080;2023-08-06T04:36:08;17.50;99.90
6841;DHT22;3458;53.678;14.080;2023-08-06T04:38:34;17.40;99.90
6841;DHT22;3458;53.678;14.080;2023-08-06T04:40:59;17.40;99.90
6841;DHT22;3458;53.678;14.080;2023-08-06T04:43:25;17.40;99.90
6841;DHT22;3458;53.678;14.080;2023-08-06T04:45:53;17.40;99.90
6841;DHT22;3458;53.678;14.080;2023-08-06T04:48:19;17.40;99.90
6841;DHT22;3458;53.678;14.080;2023-08-06T04:50:49;17.40;99.90
6841;DHT22;3458;53.678;14.080;2023-08-06T04:53:15;17.40;99.90
6841;DHT22;3458;53.678;14.080;2023-08-06T04:55:41;17.40;99.90
6841;DHT22;3458;53.678;14.080;2023-08-06T04:58:10;17.50;99.90
6841;DHT22;3458;53.678;14.080;2023-08-06T05:00:35;17.40;99.90
6841;DHT22;3458;53.678;14.080;2023-08-06T05:03:01;17.40;99.90
6841;DHT22;3458;53.678;14.080;2023-08-06T05:05:27;17.40;99.90
6841;DHT22;3458;53.678;14.080;2023-08-06T05:07:54;17.40;99.90
6841;DHT22;3458;53.678;14.080;2023-08-06T05:10:20;17.40;99.90
6841;DHT22;3458;53.678;14.080;2023-08-06T05:12:46;17.40;99.90
6841;DHT22;3458;53.678;14.080;2023-08-06T05:15:11;17.40;99.90
6841;DHT22;3458;53.678;14.080;2023-08-06T05:17:37;17.40;99.90
6841;DHT22;3458;53.678;14.080;2023-08-06T05:20:02;17.40;99.90
6841;DHT22;3458;53.678;14.080;2023-08-06T05:22:28;17.40;99.90
6841;DHT22;3458;53.678;14.080;2023-08-06T05:24:54;17.40;99.90
6841;DHT22;3458;53.678;14.080;2023-08-06T05:27:19;17.40;99.90
6841;DHT22;3458;53.678;14.080;2023-08-06T05:29:45;17.40;99.90
6841;DHT22;3458;53.678;14.080;2023-08-06T05:32:10;17.40;99.90
6841;DHT22;3458;53.678;14.080;2023-08-06T05:34:36;17.40;99.90
6841;DHT22;3458;53.678;14.080;2023-08-06T05:37:02;17.40;99.90
6841;DHT22;3458;53.678;14.080;2023-08-06T05:39:28;17.40;99.90
6841;DHT22;3458;53.678;14.080;2023-08-06T05:41:53;17.40;99.90
6841;DHT22;3458;53.678;14.080;2023-08-06T05:44:20;17.40;99.90
6841;DHT22;3458;53.678;14.080;2023-08-06T05:46:46;17.40;99.90
6841;DHT22;3458;53.678;14.080;2023-08-06T05:49:11;17.40;99.90
6841;DHT22;3458;53.678;14.080;2023-08-06T05:51:38;17.40;99.90
6841;DHT22;3458;53.678;14.080;2023-08-06T05:54:04;17.40;99.90
6841;DHT22;3458;53.678;14.080;2023-08-06T05:56:29;17.40;99.90
6841;DHT22;3458;53.678;14.080;2023-08-06T05:58:55;17.40;99.90
6841;DHT22;3458;53.678;14.080;2023-08-06T06:01:20;17.40;99.90
6841;DHT22;3458;53.678;14.080;2023-08-06T06:03:46;17.40;99.90
6841;DHT22;3458;53.678;14.080;2023-08-06T06:06:11;17.40;99.90
6841;DHT22;3458;53.678;14.080;2023-08-06T06:08:36;17.40;99.90
6841;DHT22;3458;53.678;14.080;2023-08-06T06:11:02;17.30;99.90
6841;DHT22;3458;53.678;14.080;2023-08-06T06:13:27;17.30;99.90
6841;DHT22;3458;53.678;14.080;2023-08-06T06:15:56;17.30;99.90
6841;DHT22;3458;53.678;14.080;2023-08-06T06:18:22;17.30;99.90
6841;DHT22;3458;53.678;14.080;2023-08-06T06:20:48;17.30;99.90
6841;DHT22;3458;53.678;14.080;2023-08-06T06:23:13;17.20;99.90
6841;DHT22;3458;53.678;14.080;2023-08-06T06:25:43;17.20;99.90
6841;DHT22;3458;53.678;14.080;2023-08-06T06:28:09;17.20;99.90
6841;DHT22;3458;53.678;14.080;2023-08-06T06:30:34;17.20;99.90
6841;DHT22;3458;53.678;14.080;2023-08-06T06:33:00;17.30;99.90
6841;DHT22;3458;53.678;14.080;2023-08-06T06:35:25;17.30;99.90
6841;DHT22;3458;53.678;14.080;2023-08-06T06:37:51;17.30;99.90
6841;DHT22;3458;53.678;14.080;2023-08-06T06:40:16;17.30;99.90
6841;DHT22;3458;53.678;14.080;2023-08-06T06:42:42;17.30;99.90
6841;DHT22;3458;53.678;14.080;2023-08-06T06:45:08;17.30;99.90
6841;DHT22;3458;53.678;14.080;2023-08-06T06:47:34;17.40;99.90
6841;DHT22;3458;53.678;14.080;2023-08-06T06:49:59;17.40;99.90
6841;DHT22;3458;53.678;14.080;2023-08-06T06:52:25;17.40;99.90
6841;DHT22;3458;53.678;14.080;2023-08-06T06:54:50;17.40;99.90
6841;DHT22;3458;53.678;14.080;2023-08-06T06:57:15;17.40;99.90
6841;DHT22;3458;53.678;14.080;2023-08-06T06:59:41;17.40;99.90
6841;DHT22;3458;53.678;14.080;2023-08-06T07:02:07;17.40;99.90
6841;DHT22;3458;53.678;14.080;2023-08-06T07:04:32;17.30;99.90
6841;DHT22;3458;53.678;14.080;2023-08-06T07:06:57;17.40;99.90
6841;DHT22;3458;53.678;14.080;2023-08-06T07:09:23;17.40;99.90
6841;DHT22;3458;53.678;14.080;2023-08-06T07:11:48;17.40;99.90
6841;DHT22;3458;53.678;14.080;2023-08-06T07:14:14;17.40;99.90
6841;DHT22;3458;53.678;14.080;2023-08-06T07:16:39;17.40;99.90
6841;DHT22;3458;53.678;14.080;2023-08-06T07:19:05;17.50;99.90
6841;DHT22;3458;53.678;14.080;2023-08-06T07:21:31;17.50;99.90
6841;DHT22;3458;53.678;14.080;2023-08-06T07:23:56;17.50;99.90
6841;DHT22;3458;53.678;14.080;2023-08-06T07:26:22;17.50;99.90
6841;DHT22;3458;53.678;14.080;2023-08-06T07:28:47;17.50;99.90
6841;DHT22;3458;53.678;14.080;2023-08-06T07:31:13;17.60;99.90
6841;DHT22;3458;53.678;14.080;2023-08-06T07:33:38;17.60;99.90
6841;DHT22;3458;53.678;14.080;2023-08-06T07:36:13;17.60;99.90
6841;DHT22;3458;53.678;14.080;2023-08-06T07:38:39;17.60;99.90
6841;DHT22;3458;53.678;14.080;2023-08-06T07:41:05;17.60;99.90
6841;DHT22;3458;53.678;14.080;2023-08-06T07:43:31;17.60;99.90
6841;DHT22;3458;53.678;14.080;2023-08-06T07:46:00;17.60;99.90
6841;DHT22;3458;53.678;14.080;2023-08-06T07:48:26;17.60;99.90
6841;DHT22;3458;53.678;14.080;2023-08-06T07:50:52;17.60;99.90
6841;DHT22;3458;53.678;14.080;2023-08-06T07:53:20;17.70;99.90
6841;DHT22;3458;53.678;14.080;2023-08-06T07:55:51;17.70;99.90
6841;DHT22;3458;53.678;14.080;2023-08-06T07:58:17;17.70;99.90
6841;DHT22;3458;53.678;14.080;2023-08-06T08:00:43;17.70;99.90
6841;DHT22;3458;53.678;14.080;2023-08-06T08:03:13;17.70;99.90
6841;DHT22;3458;53.678;14.080;2023-08-06T08:05:40;17.70;99.90
6841;DHT22;3458;53.678;14.080;2023-08-06T08:08:05;17.70;99.90
6841;DHT22;3458;53.678;14.080;2023-08-06T08:10:32;17.70;99.90
6841;DHT22;3458;53.678;14.080;2023-08-06T08:12:57;17.70;99.90
6841;DHT22;3458;53.678;14.080;2023-08-06T08:15:24;17.70;99.90
6841;DHT22;3458;53.678;14.080;2023-08-06T08:17:51;17.70;99.90
6841;DHT22;3458;53.678;14.080;2023-08-06T08:20:17;17.70;99.90
6841;DHT22;3458;53.678;14.080;2023-08-06T08:22:43;17.80;99.90
6841;DHT22;3458;53.678;14.080;2023-08-06T08:25:08;17.80;99.90
6841;DHT22;3458;53.678;14.080;2023-08-06T08:27:34;17.80;99.90
6841;DHT22;3458;53.678;14.080;2023-08-06T08:29:59;17.80;99.90
6841;DHT22;3458;53.678;14.080;2023-08-06T08:32:25;17.80;99.90
6841;DHT22;3458;53.678;14.080;2023-08-06T08:34:50;17.80;99.90
6841;DHT22;3458;53.678;14.080;2023-08-06T08:37:16;17.80;99.90
6841;DHT22;3458;53.678;14.080;2023-08-06T08:39:41;17.80;99.90
6841;DHT22;3458;53.678;14.080;2023-08-06T08:42:07;17.80;99.90
6841;DHT22;3458;53.678;14.080;2023-08-06T08:44:33;17.80;99.90
6841;DHT22;3458;53.678;14.080;2023-08-06T08:47:01;17.80;99.90
6841;DHT22;3458;53.678;14.080;2023-08-06T08:49:27;17.80;99.90
6841;DHT22;3458;53.678;14.080;2023-08-06T08:51:54;17.80;99.90
6841;DHT22;3458;53.678;14.080;2023-08-06T08:54:23;17.80;99.90
6841;DHT22;3458;53.678;14.080;2023-08-06T08:56:49;17.80;99.90
6841;DHT22;3458;53.678;14.080;2023-08-06T08:59:14;17.80;99.90
6841;DHT22;3458;53.678;14.080;2023-08-06T09:01:40;17.80;99.90
6841;DHT22;3458;53.678;14.080;2023-08-06T09:04:07;17.70;99.90
6841;DHT22;3458;53.678;14.080;2023-08-06T09:06:36;17.80;99.90
6841;DHT22;3458;53.678;14.080;2023-08-06T09:09:11;17.80;99.90
6841;DHT22;3458;53.678;14.080;2023-08-06T09:11:43;17.80;99.90
6841;DHT22;3458;53.678;14.080;2023-08-06T09:14:08;17.80;99.90
6841;DHT22;3458;53.678;14.080;2023-08-06T09:16:37;17.70;99.90
6841;DHT22;3458;53.678;14.080;2023-08-06T09:19:13;17.70;99.90
6841;DHT22;3458;53.678;14.080;2023-08-06T09:21:42;17.70;99.90
6841;DHT22;3458;53.678;14.080;2023-08-06T09:24:12;17.80;99.90
6841;DHT22;3458;53.678;14.080;2023-08-06T09:26:41;17.80;99.90
6841;DHT22;3458;53.678;14.080;2023-08-06T09:29:08;17.80;99.90
6841;DHT22;3458;53.678;14.080;2023-08-06T09:34:20;17.80;99.90
6841;DHT22;3458;53.678;14.080;2023-08-06T09:36:48;17.80;99.90
6841;DHT22;3458;53.678;14.080;2023-08-06T09:39:18;17.70;99.90
6841;DHT22;3458;53.678;14.080;2023-08-06T09:41:44;17.70;99.90
6841;DHT22;3458;53.678;14.080;2023-08-06T09:44:20;17.80;99.90
6841;DHT22;3458;53.678;14.080;2023-08-06T09:46:51;17.80;99.90
6841;DHT22;3458;53.678;14.080;2023-08-06T09:49:18;17.70;99.90
6841;DHT22;3458;53.678;14.080;2023-08-06T09:51:45;17.80;99.90
6841;DHT22;3458;53.678;14.080;2023-08-06T09:54:12;17.80;99.90
6841;DHT22;3458;53.678;14.080;2023-08-06T09:56:39;17.80;99.90
6841;DHT22;3458;53.678;14.080;2023-08-06T09:59:05;17.90;99.90
6841;DHT22;3458;53.678;14.080;2023-08-06T10:01:33;17.90;99.90
6841;DHT22;3458;53.678;14.080;2023-08-06T10:04:00;18.00;99.90
6841;DHT22;3458;53.678;14.080;2023-08-06T10:06:28;18.00;99.90
6841;DHT22;3458;53.678;14.080;2023-08-06T10:08:54;18.00;99.90
6841;DHT22;3458;53.678;14.080;2023-08-06T10:11:22;18.00;99.90
6841;DHT22;3458;53.678;14.080;2023-08-06T10:13:49;18.00;99.90
6841;DHT22;3458;53.678;14.080;2023-08-06T10:16:16;18.00;99.90
6841;DHT22;3458;53.678;14.080;2023-08-06T10:18:42;18.00;99.90
6841;DHT22;3458;53.678;14.080;2023-08-06T10:21:08;18.00;99.90
6841;DHT22;3458;53.678;14.080;2023-08-06T10:23:36;18.00;99.90
6841;DHT22;3458;53.678;14.080;2023-08-06T10:26:03;18.00;99.90
6841;DHT22;3458;53.678;14.080;2023-08-06T10:28:39;18.00;99.90
6841;DHT22;3458;53.678;14.080;2023-08-06T10:31:05;18.00;99.90
6841;DHT22;3458;53.678;14.080;2023-08-06T10:33:41;17.90;99.90
6841;DHT22;3458;53.678;14.080;2023-08-06T10:36:08;17.90;99.90
6841;DHT22;3458;53.678;14.080;2023-08-06T10:38:35;17.90;99.90
6841;DHT22;3458;53.678;14.080;2023-08-06T10:41:03;17.90;99.90
6841;DHT22;3458;53.678;14.080;2023-08-06T10:43:31;17.90;99.90
6841;DHT22;3458;53.678;14.080;2023-08-06T10:45:59;17.90;99.90
6841;DHT22;3458;53.678;14.080;2023-08-06T10:48:38;17.90;99.90
6841;DHT22;3458;53.678;14.080;2023-08-06T10:51:07;17.90;99.90
6841;DHT22;3458;53.678;14.080;2023-08-06T10:53:33;17.80;99.90
6841;DHT22;3458;53.678;14.080;2023-08-06T10:55:58;17.80;99.90
6841;DHT22;3458;53.678;14.080;2023-08-06T10:58:24;17.90;99.90
6841;DHT22;3458;53.678;14.080;2023-08-06T11:00:49;17.80;99.90
6841;DHT22;3458;53.678;14.080;2023-08-06T11:03:15;17.80;99.90
6841;DHT22;3458;53.678;14.080;2023-08-06T11:05:40;17.80;99.90
6841;DHT22;3458;53.678;14.080;2023-08-06T11:08:06;17.80;99.90
6841;DHT22;3458;53.678;14.080;2023-08-06T11:10:34;17.80;99.90
6841;DHT22;3458;53.678;14.080;2023-08-06T11:13:03;17.80;99.90
6841;DHT22;3458;53.678;14.080;2023-08-06T11:15:30;17.70;99.90
6841;DHT22;3458;53.678;14.080;2023-08-06T11:17:56;17.70;99.90
6841;DHT22;3458;53.678;14.080;2023-08-06T11:20:21;17.60;99.90
6841;DHT22;3458;53.678;14.080;2023-08-06T11:22:47;17.50;99.90
6841;DHT22;3458;53.678;14.080;2023-08-06T11:25:13;17.50;99.90
6841;DHT22;3458;53.678;14.080;2023-08-06T11:27:38;17.40;99.90
6841;DHT22;3458;53.678;14.080;2023-08-06T11:30:04;17.30;99.90
6841;DHT22;3458;53.678;14.080;2023-08-06T11:32:30;17.20;99.90
6841;DHT22;3458;53.678;14.080;2023-08-06T11:34:56;17.20;99.90
6841;DHT22;3458;53.678;14.080;2023-08-06T11:37:22;17.20;99.90
6841;DHT22;3458;53.678;14.080;2023-08-06T11:39:49;17.20;99.90
6841;DHT22;3458;53.678;14.080;2023-08-06T11:42:15;17.20;99.90
6841;DHT22;3458;53.678;14.080;2023-08-06T11:44:41;17.10;99.90
6841;DHT22;3458;53.678;14.080;2023-08-06T11:47:15;17.10;99.90
6841;DHT22;3458;53.678;14.080;2023-08-06T11:49:46;17.20;99.90
6841;DHT22;3458;53.678;14.080;2023-08-06T11:52:17;17.20;99.90
6841;DHT22;3458;53.678;14.080;2023-08-06T11:54:59;17.20;99.90
6841;DHT22;3458;53.678;14.080;2023-08-06T11:57:25;17.20;99.90
6841;DHT22;3458;53.678;14.080;2023-08-06T11:59:50;17.20;99.90
6841;DHT22;3458;53.678;14.080;2023-08-06T12:02:16;17.20;99.90
6841;DHT22;3458;53.678;14.080;2023-08-06T12:05:09;17.20;99.90
6841;DHT22;3458;53.678;14.080;2023-08-06T12:07:37;17.30;99.90
6841;DHT22;3458;53.678;14.080;2023-08-06T12:10:05;17.40;99.90
6841;DHT22;3458;53.678;14.080;2023-08-06T12:12:31;17.30;99.90
6841;DHT22;3458;53.678;14.080;2023-08-06T12:14:56;17.30;99.90
6841;DHT22;3458;53.678;14.080;2023-08-06T12:17:23;17.30;99.90
6841;DHT22;3458;53.678;14.080;2023-08-06T12:19:49;17.30;99.90
6841;DHT22;3458;53.678;14.080;2023-08-06T12:22:15;17.30;99.90
6841;DHT22;3458;53.678;14.080;2023-08-06T12:24:41;17.30;99.90
6841;DHT22;3458;53.678;14.080;2023-08-06T12:27:07;17.20;99.90
6841;DHT22;3458;53.678;14.080;2023-08-06T12:29:32;17.20;99.90
6841;DHT22;3458;53.678;14.080;2023-08-06T12:31:58;17.20;99.90
6841;DHT22;3458;53.678;14.080;2023-08-06T12:34:23;17.20;99.90
6841;DHT22;3458;53.678;14.080;2023-08-06T12:36:49;17.20;99.90
6841;DHT22;3458;53.678;14.080;2023-08-06T12:39:14;17.20;99.90
6841;DHT22;3458;53.678;14.080;2023-08-06T12:41:40;17.20;99.90
6841;DHT22;3458;53.678;14.080;2023-08-06T12:44:05;17.20;99.90
6841;DHT22;3458;53.678;14.080;2023-08-06T12:46:31;17.20;99.90
6841;DHT22;3458;53.678;14.080;2023-08-06T12:48:57;17.10;99.90
6841;DHT22;3458;53.678;14.080;2023-08-06T12:51:23;17.10;99.90
6841;DHT22;3458;53.678;14.080;2023-08-06T12:53:49;17.20;99.90
6841;DHT22;3458;53.678;14.080;2023-08-06T12:56:15;17.10;99.90
6841;DHT22;3458;53.678;14.080;2023-08-06T12:58:40;17.00;99.90
6841;DHT22;3458;53.678;14.080;2023-08-06T13:01:07;17.00;99.90
6841;DHT22;3458;53.678;14.080;2023-08-06T13:03:32;17.00;99.90
6841;DHT22;3458;53.678;14.080;2023-08-06T13:05:58;17.00;99.90
6841;DHT22;3458;53.678;14.080;2023-08-06T13:08:23;17.10;99.90
6841;DHT22;3458;53.678;14.080;2023-08-06T13:10:49;17.00;99.90
6841;DHT22;3458;53.678;14.080;2023-08-06T13:13:14;17.00;99.90
6841;DHT22;3458;53.678;14.080;2023-08-06T13:15:40;16.90;99.90
6841;DHT22;3458;53.678;14.080;2023-08-06T13:18:05;17.00;99.90
6841;DHT22;3458;53.678;14.080;2023-08-06T13:20:31;16.90;99.90
6841;DHT22;3458;53.678;14.080;2023-08-06T13:22:58;16.90;99.90
6841;DHT22;3458;53.678;14.080;2023-08-06T13:25:26;17.00;99.90
6841;DHT22;3458;53.678;14.080;2023-08-06T13:27:52;16.90;99.90
6841;DHT22;3458;53.678;14.080;2023-08-06T13:30:17;16.90;99.90
6841;DHT22;3458;53.678;14.080;2023-08-06T13:32:44;16.80;99.90
6841;DHT22;3458;53.678;14.080;2023-08-06T13:35:10;16.70;99.90
6841;DHT22;3458;53.678;14.080;2023-08-06T13:37:35;16.60;99.90
6841;DHT22;3458;53.678;14.080;2023-08-06T13:40:00;16.60;99.90
6841;DHT22;3458;53.678;14.080;2023-08-06T13:42:26;16.70;99.90
6841;DHT22;3458;53.678;14.080;2023-08-06T13:44:51;16.70;99.90
6841;DHT22;3458;53.678;14.080;2023-08-06T13:47:18;16.70;99.90
6841;DHT22;3458;53.678;14.080;2023-08-06T13:49:43;16.70;99.90
6841;DHT22;3458;53.678;14.080;2023-08-06T13:52:09;16.70;99.90
6841;DHT22;3458;53.678;14.080;2023-08-06T13:54:34;16.60;99.90
6841;DHT22;3458;53.678;14.080;2023-08-06T13:57:00;16.60;99.90
6841;DHT22;3458;53.678;14.080;2023-08-06T13:59:25;16.50;99.90
6841;DHT22;3458;53.678;14.080;2023-08-06T14:01:51;16.50;99.90
6841;DHT22;3458;53.678;14.080;2023-08-06T14:04:18;16.50;99.90
6841;DHT22;3458;53.678;14.080;2023-08-06T14:06:44;16.50;99.90
6841;DHT22;3458;53.678;14.080;2023-08-06T14:09:09;16.50;99.90
6841;DHT22;3458;53.678;14.080;2023-08-06T14:11:37;16.50;99.90
6841;DHT22;3458;53.678;14.080;2023-08-06T14:14:03;16.60;99.90
6841;DHT22;3458;53.678;14.080;2023-08-06T14:16:28;16.70;99.90
6841;DHT22;3458;53.678;14.080;2023-08-06T14:18:54;16.70;99.90
6841;DHT22;3458;53.678;14.080;2023-08-06T14:21:19;16.70;99.90
6841;DHT22;3458;53.678;14.080;2023-08-06T14:23:45;16.70;99.90
6841;DHT22;3458;53.678;14.080;2023-08-06T14:26:10;16.60;99.90
6841;DHT22;3458;53.678;14.080;2023-08-06T14:28:36;16.60;99.90
6841;DHT22;3458;53.678;14.080;2023-08-06T14:31:01;16.60;99.90
6841;DHT22;3458;53.678;14.080;2023-08-06T14:33:27;16.50;99.90
6841;DHT22;3458;53.678;14.080;2023-08-06T14:35:52;16.40;99.90
6841;DHT22;3458;53.678;14.080;2023-08-06T14:38:18;16.50;99.90
6841;DHT22;3458;53.678;14.080;2023-08-06T14:40:44;16.40;99.90
6841;DHT22;3458;53.678;14.080;2023-08-06T14:43:09;16.40;99.90
6841;DHT22;3458;53.678;14.080;2023-08-06T14:45:38;16.40;99.90
6841;DHT22;3458;53.678;14.080;2023-08-06T14:48:04;16.40;99.90
6841;DHT22;3458;53.678;14.080;2023-08-06T14:50:30;16.40;99.90
6841;DHT22;3458;53.678;14.080;2023-08-06T14:52:55;16.30;99.90
6841;DHT22;3458;53.678;14.080;2023-08-06T14:55:25;16.30;99.90
6841;DHT22;3458;53.678;14.080;2023-08-06T14:57:51;16.30;99.90
6841;DHT22;3458;53.678;14.080;2023-08-06T15:00:17;16.20;99.90
6841;DHT22;3458;53.678;14.080;2023-08-06T15:02:42;16.30;99.90
6841;DHT22;3458;53.678;14.080;2023-08-06T15:05:08;16.30;99.90
6841;DHT22;3458;53.678;14.080;2023-08-06T15:07:34;16.20;99.90
6841;DHT22;3458;53.678;14.080;2023-08-06T15:10:04;16.10;99.90
6841;DHT22;3458;53.678;14.080;2023-08-06T15:12:30;16.00;99.90
6841;DHT22;3458;53.678;14.080;2023-08-06T15:14:56;15.90;99.90
6841;DHT22;3458;53.678;14.080;2023-08-06T15:17:22;16.00;99.90
6841;DHT22;3458;53.678;14.080;2023-08-06T15:19:48;16.00;99.90
6841;DHT22;3458;53.678;14.080;2023-08-06T15:22:14;15.90;99.90
6841;DHT22;3458;53.678;14.080;2023-08-06T15:24:39;15.90;99.90
6841;DHT22;3458;53.678;14.080;2023-08-06T15:27:08;15.90;99.90
6841;DHT22;3458;53.678;14.080;2023-08-06T15:29:34;15.90;99.90
6841;DHT22;3458;53.678;14.080;2023-08-06T15:32:00;15.90;99.90
6841;DHT22;3458;53.678;14.080;2023-08-06T15:34:25;15.90;99.90
6841;DHT22;3458;53.678;14.080;2023-08-06T15:36:51;15.90;99.90
6841;DHT22;3458;53.678;14.080;2023-08-06T15:39:16;15.80;99.90
6841;DHT22;3458;53.678;14.080;2023-08-06T15:41:42;15.80;99.90
6841;DHT22;3458;53.678;14.080;2023-08-06T15:44:07;15.90;99.90
6841;DHT22;3458;53.678;14.080;2023-08-06T15:46:33;15.80;99.90
6841;DHT22;3458;53.678;14.080;2023-08-06T15:49:01;15.90;99.90